Agua Dulce, California
Current Conditions -  °F | °C
As of 1:56 PM on Monday 26 Jan 2015 (Local Time) from KWJF Reporting Station
Broken Clouds Broken Clouds  
Wind Chill: 16°   Ceiling: 10000
Heat Index: 16°   Visibility: 10mi
Dew Point:   Wind: 9mph
Humidity: 38%   Direction: 40°NE
Pressure: 30.06"   Gusts: NA
Location:  34.513°N, 118.402°W
Report Text: KWJF 262156Z 04008KT 10SM BKN100 16/02 A3006 RMK AO2 SLP182 T01610017
Loading
Personal Weather Stations






























Interactive Weather Map New forecast layout! Learn more

10-Day Weather Forecast

Advertisements
Track Severe Weather on mobile